createdAt,value
2022-10-13T03:09:59.317Z,9.81
2022-10-13T03:52:23.055Z,10.11
2022-10-13T05:55:17.693Z,10.61
2022-10-13T05:57:49.049Z,10.64
2022-10-13T06:00:18.574Z,10.66
2022-10-13T06:03:46.026Z,10.67
2022-10-13T06:06:12.497Z,10.71
2022-10-13T06:08:39.071Z,10.74
2022-10-13T06:11:05.932Z,10.75
2022-10-13T06:13:33.734Z,10.80
2022-10-13T06:16:00.181Z,10.82
2022-10-13T06:18:26.921Z,10.86
2022-10-13T06:20:53.365Z,10.86
2022-10-13T06:23:19.846Z,10.85
2022-10-13T06:26:24.145Z,10.86
2022-10-13T06:36:45.390Z,10.92
2022-10-13T06:47:57.044Z,10.95
2022-10-13T06:55:53.958Z,11.04
2022-10-13T07:04:27.956Z,11.16
2022-10-13T07:11:27.229Z,11.25
2022-10-13T07:14:05.901Z,11.30
2022-10-13T07:16:32.378Z,11.33
2022-10-13T07:18:58.810Z,11.38
2022-10-13T07:21:26.010Z,11.42
2022-10-13T07:23:52.521Z,11.47
2022-10-13T07:26:19.015Z,11.53
2022-10-13T07:28:45.459Z,11.59
2022-10-13T07:31:15.464Z,11.64
2022-10-13T07:33:43.482Z,11.70
2022-10-13T07:36:11.079Z,11.76
2022-10-13T07:38:37.732Z,11.83
2022-10-13T07:41:05.887Z,11.89
2022-10-13T07:43:32.813Z,11.93
2022-10-13T07:46:01.043Z,11.98
2022-10-13T07:48:28.136Z,12.05
2022-10-13T07:50:54.566Z,12.11
2022-10-13T07:53:21.028Z,12.16
2022-10-13T07:55:47.520Z,12.19
2022-10-13T07:58:14.148Z,12.24
2022-10-13T08:00:40.616Z,12.27
2022-10-13T08:03:07.451Z,12.30
2022-10-13T08:05:34.085Z,12.34
2022-10-13T08:08:00.485Z,12.37
2022-10-13T08:10:29.216Z,12.42
2022-10-13T08:12:55.643Z,12.50
2022-10-13T08:15:22.226Z,12.65
2022-10-13T08:17:48.654Z,12.84
2022-10-13T08:20:15.177Z,13.03
2022-10-13T08:22:41.596Z,13.23
2022-10-13T08:25:08.512Z,13.48
2022-10-13T08:27:50.053Z,13.75
2022-10-13T08:30:17.776Z,13.97
2022-10-13T08:32:44.325Z,14.07
2022-10-13T08:35:10.895Z,14.07
2022-10-13T08:37:37.316Z,14.05
2022-10-13T08:40:04.202Z,14.00
2022-10-13T08:42:30.658Z,13.99
2022-10-13T08:47:56.901Z,14.03
2022-10-13T08:50:27.038Z,14.06
2022-10-13T08:53:25.753Z,14.03
2022-10-13T08:55:57.846Z,13.93
2022-10-13T08:58:28.671Z,13.88
2022-10-13T09:01:11.780Z,13.86
2022-10-13T09:04:08.219Z,13.94
2022-10-13T09:06:41.231Z,14.12
2022-10-13T09:09:11.418Z,14.19
2022-10-13T09:11:41.106Z,14.17
2022-10-13T09:14:28.413Z,14.14
2022-10-13T09:16:57.433Z,14.12
2022-10-13T09:19:36.139Z,14.09
2022-10-13T09:22:20.450Z,14.00
2022-10-13T09:24:47.372Z,13.95
2022-10-13T09:27:16.350Z,13.94
2022-10-13T09:29:44.787Z,13.96
2022-10-13T09:32:20.787Z,13.94
2022-10-13T09:34:48.320Z,13.90
2022-10-13T09:37:34.720Z,13.87
2022-10-13T09:40:13.682Z,13.87
2022-10-13T09:42:40.811Z,13.92
2022-10-13T09:45:23.309Z,14.05
2022-10-13T09:48:06.367Z,14.25
2022-10-13T09:50:35.221Z,14.40
2022-10-13T09:53:26.585Z,14.54
2022-10-13T09:56:23.364Z,14.72
2022-10-13T09:59:31.162Z,14.94
2022-10-13T10:02:00.993Z,14.97
2022-10-13T10:04:37.710Z,15.05
2022-10-13T10:07:20.611Z,15.11
2022-10-13T10:09:54.803Z,15.26
2022-10-13T10:12:28.018Z,15.41
2022-10-13T10:14:54.734Z,15.46
2022-10-13T10:17:27.299Z,15.47
2022-10-13T10:20:10.062Z,15.51
2022-10-13T10:23:20.163Z,15.61
2022-10-13T10:25:51.135Z,15.69
2022-10-13T10:28:20.707Z,15.80
2022-10-13T10:30:54.702Z,15.84
2022-10-13T10:33:34.310Z,15.86
2022-10-13T10:36:18.913Z,15.94
2022-10-13T10:38:52.823Z,16.07
2022-10-13T10:41:46.975Z,16.21
2022-10-13T10:44:22.299Z,16.34
2022-10-13T10:46:50.167Z,16.36
2022-10-13T10:49:33.452Z,16.41
2022-10-13T10:56:35.570Z,16.49
2022-10-13T10:59:20.370Z,16.64
2022-10-13T11:02:09.556Z,16.74
2022-10-13T11:04:48.377Z,16.74
2022-10-13T11:07:23.968Z,16.69
2022-10-13T11:09:54.059Z,16.66
2022-10-13T11:12:20.994Z,16.59
2022-10-13T11:15:08.761Z,16.62
2022-10-13T11:17:37.950Z,16.56
2022-10-13T11:23:49.238Z,16.71
2022-10-13T11:26:31.164Z,16.71
2022-10-13T11:28:58.158Z,16.62
2022-10-13T11:31:35.139Z,16.48
2022-10-13T11:34:02.857Z,16.30
2022-10-13T11:36:46.026Z,16.24
2022-10-13T11:39:21.722Z,16.20
2022-10-13T11:46:01.063Z,16.02
2022-10-13T11:48:59.946Z,15.81
2022-10-13T11:51:31.769Z,15.65
2022-10-13T11:57:27.466Z,15.54
2022-10-13T11:59:56.817Z,15.46
2022-10-13T12:02:25.782Z,15.35
2022-10-13T12:05:24.617Z,15.26
2022-10-13T12:07:53.758Z,15.25
2022-10-13T12:10:29.930Z,15.34
2022-10-13T12:12:56.584Z,15.39
2022-10-13T12:15:44.067Z,15.45
2022-10-13T12:18:22.202Z,15.52
2022-10-13T12:20:54.142Z,15.48
2022-10-13T12:23:20.616Z,15.51
2022-10-13T12:25:48.974Z,15.47
2022-10-13T12:28:20.118Z,15.43
2022-10-13T12:30:55.496Z,15.34
2022-10-13T12:36:45.353Z,15.51
2022-10-13T12:39:16.463Z,15.65
2022-10-13T12:41:45.112Z,15.64
2022-10-13T12:44:15.901Z,15.52
2022-10-13T12:46:45.593Z,15.42
2022-10-13T12:49:30.067Z,15.48
2022-10-13T12:52:04.869Z,15.52
2022-10-13T12:54:34.400Z,15.57
2022-10-13T12:57:06.225Z,15.58
2022-10-13T12:59:34.552Z,15.55
2022-10-13T13:02:03.746Z,15.50
2022-10-13T13:04:42.642Z,15.36
2022-10-13T13:07:27.987Z,15.20
2022-10-13T13:10:09.715Z,15.05
2022-10-13T13:12:37.281Z,14.88
2022-10-13T13:15:25.600Z,14.81
2022-10-13T13:17:59.171Z,14.85
2022-10-13T13:20:29.383Z,14.90
2022-10-13T13:22:56.044Z,14.87
2022-10-13T13:25:23.322Z,14.84
2022-10-13T13:27:50.448Z,14.83
2022-10-13T13:30:20.045Z,14.79
2022-10-13T13:32:46.755Z,14.83
2022-10-13T13:35:13.324Z,14.97
2022-10-13T13:37:44.428Z,14.99
2022-10-13T13:40:17.130Z,15.01
2022-10-13T13:43:01.583Z,15.07
2022-10-13T13:45:28.070Z,15.18
2022-10-13T13:47:59.555Z,15.35
2022-10-13T13:50:33.100Z,15.54
2022-10-13T13:53:02.122Z,15.72
2022-10-13T13:59:49.054Z,15.69
2022-10-13T14:06:22.983Z,15.74
2022-10-13T14:08:50.214Z,15.69
2022-10-13T14:11:17.095Z,15.67
2022-10-13T14:17:34.501Z,15.63
2022-10-13T14:20:00.946Z,15.69
2022-10-13T14:22:27.666Z,15.74
2022-10-13T14:28:45.079Z,15.69
2022-10-13T14:31:11.973Z,15.60
2022-10-13T14:33:38.626Z,15.56
2022-10-13T14:36:07.049Z,15.52
2022-10-13T14:38:34.622Z,15.47
2022-10-13T14:41:02.476Z,15.43
2022-10-13T14:43:29.555Z,15.43
2022-10-13T14:45:56.348Z,15.38
2022-10-13T14:48:24.922Z,15.33
2022-10-13T14:50:51.450Z,15.35
2022-10-13T14:53:18.193Z,15.40
2022-10-13T14:55:45.267Z,15.42
2022-10-13T14:58:12.641Z,15.37
2022-10-13T15:00:39.150Z,15.29
2022-10-13T15:07:02.207Z,15.04
2022-10-13T15:13:28.976Z,14.96
2022-10-13T15:16:19.092Z,14.88
2022-10-13T15:18:46.010Z,14.80
2022-10-13T15:28:01.184Z,14.76
2022-10-13T15:42:15.210Z,14.54
2022-10-13T15:48:37.329Z,14.57
2022-10-13T15:55:40.220Z,14.58
2022-10-13T16:12:19.396Z,14.35
2022-10-13T16:18:39.254Z,14.23
2022-10-13T16:25:13.381Z,14.14
2022-10-13T16:31:26.206Z,14.04
2022-10-13T16:37:56.228Z,13.97
2022-10-13T16:44:14.278Z,13.90
2022-10-13T16:50:40.339Z,13.84
2022-10-13T16:56:47.260Z,13.80
2022-10-13T16:59:14.025Z,13.78
2022-10-13T17:01:48.860Z,13.77
2022-10-13T17:08:19.122Z,13.74
2022-10-13T17:14:38.229Z,13.72
2022-10-13T17:33:30.974Z,13.64
2022-10-13T17:55:40.412Z,13.52
2022-10-13T17:58:06.902Z,13.50
2022-10-13T18:00:54.096Z,13.50
2022-10-13T18:03:48.986Z,13.49
2022-10-13T18:06:16.497Z,13.48
2022-10-13T18:08:43.247Z,13.41
2022-10-13T18:19:00.282Z,13.24
2022-10-13T18:21:27.120Z,13.11
2022-10-13T18:23:58.877Z,13.07
2022-10-13T18:26:26.978Z,13.04
2022-10-13T18:28:54.322Z,13.04
2022-10-13T18:31:23.225Z,13.07
2022-10-13T18:33:50.192Z,13.06
2022-10-13T18:36:38.201Z,13.07
2022-10-13T18:39:07.841Z,13.07
2022-10-13T18:45:29.231Z,13.00
2022-10-13T18:47:56.718Z,12.97
2022-10-13T18:50:23.153Z,12.95
2022-10-13T18:52:49.665Z,12.91
2022-10-13T18:55:16.085Z,12.90
2022-10-13T18:57:42.556Z,12.88
2022-10-13T19:00:12.644Z,12.85
2022-10-13T19:06:32.219Z,12.80
2022-10-13T19:09:48.970Z,12.77
2022-10-13T19:16:07.050Z,12.58
2022-10-13T19:18:46.320Z,12.54
2022-10-13T19:21:13.113Z,12.47
2022-10-13T19:23:40.358Z,12.45
2022-10-13T19:26:15.063Z,12.39
2022-10-13T19:28:48.059Z,12.37
2022-10-13T19:34:59.186Z,12.20
2022-10-13T19:37:25.770Z,12.11
2022-10-13T19:39:52.292Z,12.06
2022-10-13T19:42:18.745Z,11.98
2022-10-13T19:44:45.272Z,11.92
2022-10-13T19:47:11.712Z,11.84
2022-10-13T19:49:38.234Z,11.78
2022-10-13T19:52:04.992Z,11.69
2022-10-13T19:54:34.829Z,11.61
2022-10-13T19:57:01.444Z,11.51
2022-10-13T19:59:28.233Z,11.43
2022-10-13T20:01:55.894Z,11.36
2022-10-13T20:04:22.534Z,11.29
2022-10-13T20:06:50.496Z,11.21
2022-10-13T20:09:18.789Z,11.10
2022-10-13T20:11:47.259Z,11.03
2022-10-13T20:14:14.643Z,10.97
2022-10-13T20:16:41.850Z,10.89
2022-10-13T20:19:11.371Z,10.82
2022-10-13T20:21:39.449Z,10.73
2022-10-13T20:24:07.372Z,10.66
2022-10-13T20:26:33.898Z,10.62
2022-10-13T20:29:00.521Z,10.55
2022-10-13T20:31:27.193Z,10.48
2022-10-13T20:33:58.458Z,10.44
2022-10-13T20:36:26.938Z,10.39
2022-10-13T20:38:54.369Z,10.33
2022-10-13T20:41:29.727Z,10.26
2022-10-13T20:43:58.166Z,10.17
2022-10-13T20:46:25.654Z,10.13
2022-10-13T20:51:41.674Z,9.98
2022-10-13T20:54:09.419Z,9.95
2022-10-13T20:56:36.479Z,9.90
2022-10-13T20:59:21.262Z,9.84
2022-10-13T21:01:47.723Z,9.83
2022-10-13T21:04:14.139Z,9.84
2022-10-13T21:06:41.287Z,9.89
2022-10-13T21:09:08.337Z,9.93
2022-10-13T21:11:35.819Z,10.02
2022-10-13T21:14:06.680Z,10.05
2022-10-13T21:16:34.622Z,10.08
2022-10-13T21:19:01.670Z,10.14
2022-10-13T21:21:42.399Z,10.17
2022-10-13T21:24:15.017Z,10.19
2022-10-13T21:26:41.844Z,10.21
2022-10-13T21:29:08.292Z,10.21
2022-10-13T21:32:26.990Z,10.21
2022-10-13T21:34:54.070Z,10.16
2022-10-13T21:37:20.691Z,10.15
2022-10-13T21:39:48.313Z,10.17
2022-10-13T21:43:01.225Z,10.18
2022-10-13T21:45:27.613Z,10.21
2022-10-13T21:47:54.317Z,10.22
2022-10-13T21:50:20.759Z,10.25
2022-10-13T21:52:47.215Z,10.26
2022-10-13T21:55:14.197Z,10.24
2022-10-13T21:57:40.647Z,10.23
2022-10-13T22:00:08.781Z,10.26
2022-10-13T22:02:35.298Z,10.25
2022-10-13T22:05:01.761Z,10.24
2022-10-13T22:07:28.663Z,10.25
2022-10-13T22:09:55.731Z,10.29
2022-10-13T22:12:22.209Z,10.27
2022-10-13T22:14:48.701Z,10.29
2022-10-13T22:17:15.286Z,10.29
2022-10-13T22:19:41.814Z,10.30
2022-10-13T22:22:08.317Z,10.30
2022-10-13T22:24:34.785Z,10.30
2022-10-13T22:27:01.194Z,10.30
2022-10-13T22:29:27.611Z,10.30
2022-10-13T22:31:58.030Z,10.32
2022-10-13T22:34:24.864Z,10.32
2022-10-13T22:36:51.486Z,10.34
2022-10-13T22:39:18.264Z,10.32
2022-10-13T22:41:44.914Z,10.34
2022-10-13T22:44:11.902Z,10.34
2022-10-13T22:46:39.095Z,10.33
2022-10-13T22:49:06.757Z,10.34
2022-10-13T22:51:35.522Z,10.34
2022-10-13T22:54:02.273Z,10.33
2022-10-13T22:56:31.768Z,10.33
2022-10-13T22:59:01.272Z,10.31
2022-10-13T23:01:28.287Z,10.32
2022-10-13T23:03:57.045Z,10.30
2022-10-13T23:06:27.223Z,10.27
2022-10-13T23:08:54.296Z,10.23
2022-10-13T23:11:20.866Z,10.23
2022-10-13T23:13:47.578Z,10.21
2022-10-13T23:16:16.911Z,10.22
2022-10-13T23:18:43.687Z,10.21
2022-10-13T23:21:16.057Z,10.20
2022-10-13T23:23:43.060Z,10.19
2022-10-13T23:26:12.967Z,10.17
2022-10-13T23:28:40.895Z,10.12
2022-10-13T23:31:12.281Z,10.11
2022-10-13T23:33:39.038Z,10.05
2022-10-13T23:36:06.861Z,10.03
2022-10-13T23:38:33.917Z,10.02
2022-10-13T23:41:09.866Z,10.05
2022-10-13T23:43:36.434Z,10.07
2022-10-13T23:46:03.275Z,10.04
2022-10-13T23:48:29.935Z,10.03
2022-10-13T23:50:57.211Z,10.03
2022-10-13T23:53:24.037Z,10.06
2022-10-13T23:55:50.493Z,10.07
2022-10-13T23:58:17.104Z,10.06
